Time;durP1;ratioP1;P1;durP2;ratioP2;P2;SDS_P1;SDS_P2;PMS_P1;PMS_P2;Temp;Humidity;BMP_temperature;BMP_pressure;BME280_temperature;BME280_humidity;BME280_pressure;Samples;Min_cycle;Max_cycle;Signal;HPM_P1;HPM_P2
2022/02/10 00:04:31;;;;;;;9.57;5.23;;;9.80;99.90;;;;;;5088655;28;20842;-81
2022/02/10 00:07:29;;;;;;;7.87;4.87;;;9.70;99.90;;;;;;5093597;28;20481;-81
2022/02/10 00:15:55;;;;;;;13.23;5.67;;;9.50;99.90;;;;;;5085179;28;20489;-81
2022/02/10 00:18:34;;;;;;;9.83;6.77;;;9.50;99.90;;;;;;5087472;28;20974;-81
2022/02/10 00:21:04;;;;;;;10.70;5.73;;;9.50;99.90;;;;;;5093493;28;20447;-81
2022/02/10 00:23:51;;;;;;;10.47;6.20;;;9.50;99.90;;;;;;5087105;28;20457;-80
2022/02/10 00:34:44;;;;;;;12.63;7.13;;;9.50;99.90;;;;;;5087783;28;20466;-81
2022/02/10 00:37:13;;;;;;;12.27;5.27;;;9.40;99.90;;;;;;5097088;28;20461;-81
2022/02/10 00:40:04;;;;;;;9.83;6.40;;;9.40;99.90;;;;;;5093736;28;20534;-81
2022/02/10 00:42:31;;;;;;;11.70;7.07;;;9.40;99.90;;;;;;5095913;28;20811;-81
2022/02/10 00:44:59;;;;;;;8.43;5.80;;;9.30;99.90;;;;;;5089594;28;20626;-81
2022/02/10 00:47:29;;;;;;;12.17;7.03;;;9.30;99.90;;;;;;5081478;28;20459;-82
2022/02/10 00:49:58;;;;;;;14.20;6.30;;;9.30;99.90;;;;;;5089248;28;20466;-81
2022/02/10 00:52:25;;;;;;;11.33;7.23;;;9.30;99.90;;;;;;5095471;28;20464;-81
2022/02/10 00:54:52;;;;;;;11.20;7.43;;;9.30;99.90;;;;;;5091441;28;20512;-81
2022/02/10 00:57:21;;;;;;;12.57;6.97;;;9.20;99.90;;;;;;5097820;28;20887;-83
2022/02/10 01:00:04;;;;;;;12.30;7.13;;;9.30;99.90;;;;;;5079052;28;20452;-83
2022/02/10 01:10:57;;;;;;;12.20;6.40;;;8.70;99.90;;;;;;5098018;28;20515;-83
2022/02/10 01:13:43;;;;;;;10.80;6.77;;;8.60;99.90;;;;;;5086798;28;20451;-83
2022/02/10 01:24:33;;;;;;;16.13;8.50;;;8.40;99.90;;;;;;5090577;28;20481;-84
2022/02/10 01:29:46;;;;;;;12.53;7.40;;;8.20;99.90;;;;;;5091181;28;20441;-83
2022/02/10 01:32:14;;;;;;;9.63;7.30;;;8.20;99.90;;;;;;5096572;28;21007;-84
2022/02/10 01:34:47;;;;;;;9.57;6.90;;;8.00;99.90;;;;;;5095783;28;20478;-83
2022/02/10 01:37:14;;;;;;;8.13;7.00;;;8.00;99.90;;;;;;5097982;28;20446;-84
2022/02/10 01:39:46;;;;;;;11.07;7.70;;;7.90;99.90;;;;;;5082131;28;20909;-84
2022/02/10 01:42:54;;;;;;;15.63;8.73;;;7.90;99.90;;;;;;5077515;28;20445;-83
2022/02/10 02:04:42;;;;;;;15.33;10.30;;;7.90;99.90;;;;;;5093237;28;20542;-83
2022/02/10 02:07:11;;;;;;;15.93;8.90;;;7.80;99.90;;;;;;5096615;28;20463;-83
2022/02/10 02:09:38;;;;;;;17.83;8.80;;;7.90;99.90;;;;;;5096657;28;20479;-82
2022/02/10 02:12:08;;;;;;;15.80;8.70;;;7.80;99.90;;;;;;5088532;28;20570;-83
2022/02/10 02:14:37;;;;;;;14.33;9.07;;;7.70;99.90;;;;;;5093468;28;20471;-82
2022/02/10 02:17:06;;;;;;;12.50;9.37;;;7.70;99.90;;;;;;5096298;28;20556;-83
2022/02/10 02:19:33;;;;;;;12.17;8.77;;;7.70;99.90;;;;;;5097044;28;20493;-83
2022/02/10 02:22:03;;;;;;;13.63;7.53;;;7.60;99.90;;;;;;5093488;28;20517;-82
2022/02/10 02:24:30;;;;;;;16.53;8.27;;;7.60;99.90;;;;;;5092022;28;20520;-83
2022/02/10 02:26:59;;;;;;;14.00;9.47;;;7.50;99.90;;;;;;5085103;28;20483;-83
2022/02/10 02:29:31;;;;;;;12.27;8.13;;;7.50;99.90;;;;;;5095328;28;20458;-83
2022/02/10 02:32:02;;;;;;;19.60;9.57;;;7.40;99.90;;;;;;5084343;28;20481;-83
2022/02/10 02:40:28;;;;;;;16.90;10.93;;;7.30;99.90;;;;;;5097111;28;20808;-83
2022/02/10 03:05:29;;;;;;;17.27;11.70;;;7.30;99.90;;;;;;5040178;28;20455;-83
2022/02/10 03:07:58;;;;;;;18.23;12.47;;;7.30;99.90;;;;;;5054480;28;20589;-83
2022/02/10 03:10:55;;;;;;;17.33;12.13;;;7.50;99.90;;;;;;5070103;28;20549;-83
2022/02/10 03:13:30;;;;;;;16.33;10.83;;;7.60;99.90;;;;;;5090877;28;20538;-84
2022/02/10 03:16:13;;;;;;;15.80;10.00;;;7.70;99.90;;;;;;5079918;28;20482;-83
2022/02/10 03:18:45;;;;;;;15.90;10.60;;;7.80;99.90;;;;;;5107358;28;20492;-83
2022/02/10 03:21:36;;;;;;;14.87;10.77;;;7.90;99.90;;;;;;5089603;28;20466;-83
2022/02/10 04:05:28;;;;;;;12.27;7.10;;;7.10;99.90;;;;;;5079868;28;20549;-83
2022/02/10 04:08:01;;;;;;;12.03;7.50;;;7.00;99.90;;;;;;5081344;28;20485;-85
2022/02/10 04:13:22;;;;;;;13.30;8.60;;;7.00;99.90;;;;;;5082497;28;20454;-85
2022/02/10 04:15:59;;;;;;;13.90;8.13;;;7.00;99.90;;;;;;5101733;28;20453;-85
2022/02/10 04:21:23;;;;;;;14.60;8.63;;;6.90;99.90;;;;;;5102747;28;20471;-85
2022/02/10 04:24:04;;;;;;;12.57;7.60;;;6.90;99.90;;;;;;5084874;28;20494;-85
2022/02/10 04:26:39;;;;;;;15.00;8.63;;;6.90;99.90;;;;;;5082223;28;20476;-85
2022/02/10 04:38:01;;;;;;;11.77;8.93;;;6.70;99.90;;;;;;5098969;28;20416;-80
2022/02/10 05:16:44;;;;;;;15.40;9.20;;;7.20;99.90;;;;;;5100603;28;20452;-82
2022/02/10 05:19:29;;;;;;;14.00;11.00;;;7.10;99.90;;;;;;5101646;28;20457;-82
2022/02/10 05:31:23;;;;;;;12.87;10.97;;;7.00;99.90;;;;;;5064395;28;20865;-82
2022/02/10 05:33:19;;;;;;;13.60;8.70;;;6.90;99.90;;;;;;5080675;28;20488;-81
2022/02/10 05:35:49;;;;;;;19.97;10.10;;;7.10;99.90;;;;;;5101454;28;20548;-82
2022/02/10 05:38:23;;;;;;;13.37;8.93;;;7.20;99.90;;;;;;5101709;28;20798;-83
2022/02/10 05:43:50;;;;;;;12.10;8.10;;;7.40;99.90;;;;;;5050992;28;20461;-82
2022/02/10 05:46:26;;;;;;;17.30;9.17;;;7.40;99.90;;;;;;5101998;28;20576;-82
2022/02/10 05:54:35;;;;;;;13.30;7.97;;;7.60;99.90;;;;;;5069614;28;20455;-82
2022/02/10 05:57:15;;;;;;;16.10;8.77;;;7.60;99.90;;;;;;5080051;28;20455;-84
2022/02/10 06:02:53;;;;;;;14.53;7.80;;;7.70;99.90;;;;;;5077617;28;20461;-83
2022/02/10 06:49:50;;;;;;;12.10;6.20;;;7.70;99.90;;;;;;5104496;28;20426;-80
2022/02/10 06:52:24;;;;;;;8.37;7.10;;;7.80;99.90;;;;;;5113741;28;20484;-80
2022/02/10 06:55:01;;;;;;;9.10;5.70;;;7.70;99.90;;;;;;5107682;28;20484;-80
2022/02/10 07:03:37;;;;;;;7.70;6.27;;;7.80;99.90;;;;;;5102400;28;20813;-80
2022/02/10 07:06:19;;;;;;;9.27;6.10;;;7.80;99.90;;;;;;5105157;28;20895;-82
2022/02/10 07:09:02;;;;;;;8.57;5.67;;;7.80;99.90;;;;;;5101207;28;20468;-82
2022/02/10 07:11:50;;;;;;;8.40;5.97;;;7.90;99.90;;;;;;5098743;28;20543;-81
2022/02/10 07:17:23;;;;;;;7.27;5.43;;;8.00;99.90;;;;;;5074047;28;20513;-80
2022/02/10 07:54:36;;;;;;;14.27;7.00;;;7.90;99.90;;;;;;5029027;28;20494;-80
2022/02/10 07:57:16;;;;;;;9.57;6.93;;;7.80;99.90;;;;;;5058558;28;20466;-81
2022/02/10 08:55:03;;;;;;;16.00;8.90;;;8.20;99.90;;;;;;5100206;28;20458;-83
2022/02/10 08:57:46;;;;;;;14.97;7.77;;;8.20;99.90;;;;;;5101335;28;20516;-82
2022/02/10 09:03:22;;;;;;;14.53;7.57;;;8.40;99.90;;;;;;5038057;28;20436;-81
2022/02/10 09:05:58;;;;;;;16.50;9.00;;;8.40;99.90;;;;;;5073723;28;20495;-82
2022/02/10 09:09:07;;;;;;;15.00;9.30;;;8.50;99.90;;;;;;5080578;28;20463;-81
2022/02/10 09:18:12;;;;;;;26.40;15.90;;;8.50;99.90;;;;;;5079918;28;20430;-81
2022/02/10 09:56:36;;;;;;;12.93;8.90;;;8.80;99.90;;;;;;5079601;28;20944;-82
2022/02/10 10:02:00;;;;;;;14.47;10.10;;;8.70;99.90;;;;;;5085960;28;20437;-82
2022/02/10 10:04:34;;;;;;;14.27;9.30;;;8.60;99.90;;;;;;5099071;28;20469;-82
2022/02/10 10:07:29;;;;;;;14.37;10.37;;;8.60;99.90;;;;;;5098646;28;20564;-82
2022/02/10 10:15:48;;;;;;;22.50;11.70;;;8.50;99.90;;;;;;5054799;28;20446;-83
2022/02/10 10:18:46;;;;;;;17.50;12.23;;;8.60;99.90;;;;;;5088329;28;20477;-83
2022/02/10 10:21:28;;;;;;;18.20;13.00;;;8.60;99.90;;;;;;5080354;28;20505;-83
2022/02/10 10:24:16;;;;;;;18.20;12.47;;;8.50;99.90;;;;;;5079677;28;20463;-82
2022/02/10 10:52:18;;;;;;;19.67;13.60;;;7.90;99.90;;;;;;5101718;28;20449;-82
2022/02/10 10:54:54;;;;;;;18.70;12.67;;;7.90;99.90;;;;;;5089481;28;20978;-81
2022/02/10 10:57:28;;;;;;;16.93;12.77;;;7.90;99.90;;;;;;5097595;28;20457;-82
2022/02/10 11:00:28;;;;;;;19.10;13.47;;;7.90;99.90;;;;;;5093590;28;20455;-83
2022/02/10 11:24:00;;;;;;;19.17;14.87;;;7.70;99.90;;;;;;5086367;28;20468;-82
2022/02/10 11:38:24;;;;;;;24.10;17.00;;;7.70;99.90;;;;;;5090526;28;20414;-82
2022/02/10 11:41:38;;;;;;;16.67;12.30;;;7.60;99.90;;;;;;5094754;28;20987;-83
2022/02/10 14:13:10;;;;;;;8.50;4.70;;;11.60;99.90;;;;;;5098483;28;21051;-81
2022/02/10 14:15:54;;;;;;;6.50;4.40;;;11.60;99.90;;;;;;5093206;28;20529;-81
2022/02/10 14:18:26;;;;;;;6.10;3.70;;;11.30;99.90;;;;;;5092141;28;20481;-82
2022/02/10 14:21:08;;;;;;;5.87;4.47;;;11.10;99.90;;;;;;5092523;28;20528;-84
2022/02/10 14:26:31;;;;;;;6.17;4.70;;;10.90;99.90;;;;;;5098737;28;20500;-83
2022/02/10 14:28:58;;;;;;;9.00;4.83;;;10.80;99.90;;;;;;5100617;28;20531;-81
2022/02/10 14:31:25;;;;;;;9.30;5.80;;;10.90;99.90;;;;;;5100638;28;20499;-82
2022/02/10 14:33:54;;;;;;;7.03;6.00;;;10.90;99.90;;;;;;5096117;28;20505;-82
2022/02/10 14:36:27;;;;;;;7.60;4.67;;;10.60;99.90;;;;;;5099006;28;20812;-83
2022/02/10 14:39:04;;;;;;;7.00;5.13;;;10.60;99.90;;;;;;5099186;28;20444;-81
2022/02/10 15:47:22;;;;;;;8.53;5.40;;;8.90;99.90;;;;;;5037777;28;21013;-81
2022/02/10 16:11:37;;;;;;;9.90;4.73;;;8.40;99.90;;;;;;5021459;28;20922;-83
2022/02/10 16:16:57;;;;;;;12.70;8.23;;;8.30;99.90;;;;;;5053190;28;20427;-82
2022/02/10 16:19:27;;;;;;;11.63;7.07;;;8.30;99.90;;;;;;5040729;28;20458;-82
2022/02/10 16:22:03;;;;;;;7.83;5.00;;;8.30;99.90;;;;;;5052559;27;20477;-82
2022/02/10 16:24:31;;;;;;;9.83;4.63;;;8.20;99.90;;;;;;5053416;28;20475;-83
2022/02/10 16:27:10;;;;;;;11.63;4.90;;;8.20;99.90;;;;;;5041128;28;20957;-83
2022/02/10 16:29:38;;;;;;;10.03;4.40;;;8.30;99.90;;;;;;5046582;28;20476;-83
2022/02/10 16:32:06;;;;;;;7.63;5.27;;;8.20;99.90;;;;;;5039151;28;20472;-82
2022/02/10 16:34:38;;;;;;;8.73;6.10;;;8.20;99.90;;;;;;5043847;28;20492;-83
2022/02/10 16:37:06;;;;;;;9.17;5.33;;;8.00;99.90;;;;;;5039706;28;20494;-82
2022/02/10 16:39:33;;;;;;;11.63;6.60;;;8.00;99.90;;;;;;5059010;28;20501;-82
2022/02/10 16:42:02;;;;;;;13.70;6.90;;;8.00;99.90;;;;;;5045109;28;20543;-83
2022/02/10 16:44:29;;;;;;;14.73;9.80;;;8.00;99.90;;;;;;5048910;28;20472;-82
2022/02/10 16:46:57;;;;;;;16.43;11.00;;;8.00;99.90;;;;;;5056524;28;20478;-84
2022/02/10 16:49:24;;;;;;;20.37;12.43;;;7.90;99.90;;;;;;5055480;28;20462;-85
2022/02/10 16:51:53;;;;;;;16.97;10.27;;;7.80;99.90;;;;;;5038676;28;20462;-85
2022/02/10 16:54:26;;;;;;;19.67;10.50;;;7.80;99.90;;;;;;5036736;28;20930;-83
2022/02/10 16:57:01;;;;;;;19.57;12.50;;;7.80;99.90;;;;;;5037521;28;20452;-83
2022/02/10 16:59:46;;;;;;;24.33;13.10;;;7.70;99.90;;;;;;5037518;28;20483;-84
2022/02/10 17:02:31;;;;;;;15.90;10.30;;;7.70;99.90;;;;;;5038124;28;20445;-85
2022/02/10 17:05:25;;;;;;;13.63;10.00;;;7.70;99.90;;;;;;5056944;28;20484;-84
2022/02/10 17:19:09;;;;;;;15.00;10.17;;;7.60;99.90;;;;;;5028281;28;20436;-85
2022/02/10 17:27:19;;;;;;;18.53;8.17;;;7.50;99.90;;;;;;5040571;28;20456;-86
2022/02/10 17:30:22;;;;;;;12.03;8.20;;;7.40;99.90;;;;;;5020307;28;20456;-87
2022/02/10 17:33:02;;;;;;;14.57;7.67;;;7.50;99.90;;;;;;5044229;28;20452;-86
2022/02/10 17:35:54;;;;;;;16.83;9.47;;;7.50;99.90;;;;;;5023056;28;20543;-87
2022/02/10 17:46:53;;;;;;;11.33;7.70;;;7.50;99.90;;;;;;5026739;28;20539;-86
2022/02/10 17:52:12;;;;;;;16.00;8.33;;;7.40;99.90;;;;;;5039956;28;20483;-86
2022/02/10 17:54:40;;;;;;;9.77;6.90;;;7.30;99.90;;;;;;5038913;28;20636;-87
2022/02/10 17:57:09;;;;;;;11.13;5.30;;;7.20;99.90;;;;;;5039618;28;20513;-86
2022/02/10 17:59:37;;;;;;;7.30;5.20;;;7.00;99.90;;;;;;5056113;28;20497;-86
2022/02/10 18:02:05;;;;;;;8.10;6.23;;;6.90;99.90;;;;;;5041000;28;20460;-86
2022/02/10 18:04:32;;;;;;;5.70;4.80;;;6.80;99.90;;;;;;5038513;28;20477;-86
2022/02/10 18:06:59;;;;;;;6.83;4.93;;;6.70;99.90;;;;;;5039988;28;20493;-86
2022/02/10 18:13:01;;;;;;;5.47;2.93;;;6.50;99.90;;;;;;5028138;28;20447;-85
2022/02/10 18:15:25;;;;;;;4.20;2.73;;;6.40;99.90;;;;;;5039359;28;20473;-86
2022/02/10 18:17:58;;;;;;;7.90;3.90;;;6.30;99.90;;;;;;5045001;28;20505;-86
2022/02/10 18:20:32;;;;;;;6.03;4.23;;;6.20;99.90;;;;;;5024495;28;20468;-86
2022/02/10 18:23:08;;;;;;;7.77;4.70;;;6.30;99.90;;;;;;5046195;28;20462;-83
2022/02/10 18:25:53;;;;;;;6.27;4.50;;;6.20;99.90;;;;;;5060855;28;20475;-87
2022/02/10 18:28:29;;;;;;;11.80;6.20;;;6.30;99.90;;;;;;5048728;28;20455;-85
2022/02/10 19:09:27;;;;;;;10.90;7.20;;;6.30;99.90;;;;;;5033610;28;20477;-83
2022/02/10 19:12:00;;;;;;;15.90;8.80;;;6.40;99.90;;;;;;5040543;28;20460;-83
2022/02/10 19:14:28;;;;;;;8.87;7.10;;;6.30;99.90;;;;;;5054147;28;20566;-83
2022/02/10 19:16:56;;;;;;;11.20;8.53;;;6.30;99.90;;;;;;5048788;28;20461;-83
2022/02/10 19:19:23;;;;;;;9.73;6.80;;;6.20;99.90;;;;;;5035739;28;20489;-83
2022/02/10 19:21:50;;;;;;;12.33;6.40;;;6.30;99.90;;;;;;5035620;28;20552;-83
2022/02/10 19:24:18;;;;;;;13.97;7.90;;;6.30;99.90;;;;;;5035289;28;20537;-82
2022/02/10 19:26:50;;;;;;;10.40;6.50;;;6.30;99.90;;;;;;5035096;28;20464;-81
2022/02/10 19:29:22;;;;;;;9.33;7.00;;;6.20;99.90;;;;;;5034753;28;20455;-82
2022/02/10 19:31:51;;;;;;;8.10;7.10;;;6.20;99.90;;;;;;5030365;28;20509;-83
2022/02/10 19:34:19;;;;;;;12.77;6.80;;;6.30;99.90;;;;;;5013946;28;20499;-83
2022/02/10 19:36:46;;;;;;;10.67;8.33;;;6.30;99.90;;;;;;5049064;28;20467;-82
2022/02/10 19:39:18;;;;;;;7.90;7.10;;;6.30;99.90;;;;;;5034758;28;20476;-82
2022/02/10 19:41:48;;;;;;;7.30;4.13;;;6.20;99.90;;;;;;5031821;28;20468;-82
2022/02/10 19:44:15;;;;;;;5.50;3.00;;;6.10;99.90;;;;;;5033481;28;20452;-82
2022/02/10 19:46:43;;;;;;;4.27;2.13;;;6.10;99.90;;;;;;5034302;28;20895;-81
2022/02/10 19:49:21;;;;;;;3.70;1.93;;;6.00;99.90;;;;;;5034475;28;20467;-82
2022/02/10 19:51:49;;;;;;;3.00;1.97;;;5.80;99.90;;;;;;5047530;28;20485;-82
2022/02/10 19:54:23;;;;;;;2.47;1.97;;;5.60;99.90;;;;;;5033996;28;20502;-81
2022/02/10 19:56:52;;;;;;;4.73;1.67;;;5.60;99.90;;;;;;5033502;28;20464;-81
2022/02/10 19:59:24;;;;;;;4.37;2.00;;;5.50;99.90;;;;;;5040160;28;20557;-82
2022/02/10 20:01:52;;;;;;;6.53;2.67;;;5.40;99.90;;;;;;5040125;28;20456;-82
2022/02/10 20:04:23;;;;;;;5.20;2.30;;;5.30;99.90;;;;;;5035569;28;20867;-81
2022/02/10 20:06:52;;;;;;;7.00;2.73;;;5.20;99.90;;;;;;5037592;28;20455;-82
2022/02/10 20:09:20;;;;;;;8.20;3.30;;;5.20;99.90;;;;;;5036881;28;20468;-80
2022/02/10 20:11:51;;;;;;;6.67;4.10;;;5.20;99.90;;;;;;5044407;28;20459;-81
2022/02/10 20:14:18;;;;;;;5.87;2.37;;;5.20;99.90;;;;;;5054489;28;20487;-81
2022/02/10 20:16:45;;;;;;;3.90;2.10;;;5.20;99.90;;;;;;5038021;28;20462;-80
2022/02/10 20:19:12;;;;;;;3.00;2.40;;;5.20;99.90;;;;;;5035197;28;20465;-81
2022/02/10 20:21:39;;;;;;;7.50;3.23;;;5.20;99.90;;;;;;5055260;28;20472;-81
2022/02/10 20:24:08;;;;;;;3.87;2.10;;;5.20;99.90;;;;;;5055440;28;20455;-81
2022/02/10 20:26:35;;;;;;;5.50;3.63;;;5.30;99.90;;;;;;5035868;28;20459;-82
2022/02/10 20:29:02;;;;;;;4.07;3.40;;;5.20;99.90;;;;;;5035263;28;21039;-81
2022/02/10 20:31:30;;;;;;;5.57;3.50;;;5.20;99.90;;;;;;5049240;28;20536;-83
2022/02/10 20:33:58;;;;;;;7.27;3.30;;;5.20;99.90;;;;;;5032485;28;20489;-82
2022/02/10 20:36:25;;;;;;;3.73;3.30;;;5.20;99.90;;;;;;5053294;28;20474;-81
2022/02/10 20:38:56;;;;;;;4.80;2.90;;;5.10;99.90;;;;;;5057500;28;20463;-82
2022/02/10 20:41:31;;;;;;;3.10;2.00;;;5.10;99.90;;;;;;5040448;28;20496;-81
2022/02/10 20:44:00;;;;;;;3.53;2.30;;;5.20;99.90;;;;;;5035290;28;20461;-80
2022/02/10 20:46:29;;;;;;;3.90;3.00;;;5.10;99.90;;;;;;5048123;28;20474;-82
2022/02/10 20:48:56;;;;;;;6.77;3.30;;;5.10;99.90;;;;;;5051988;28;20517;-79
2022/02/10 20:51:23;;;;;;;6.03;3.20;;;5.10;99.90;;;;;;5036207;28;20464;-80
2022/02/10 20:53:51;;;;;;;10.43;3.97;;;5.20;99.90;;;;;;5033861;28;20928;-82
2022/02/10 20:56:21;;;;;;;7.23;5.13;;;5.20;99.90;;;;;;5036211;28;20579;-82
2022/02/10 20:58:55;;;;;;;6.17;3.77;;;5.20;99.90;;;;;;5035648;28;20998;-82
2022/02/10 21:01:22;;;;;;;6.60;4.20;;;5.10;99.90;;;;;;5048994;28;20459;-81
2022/02/10 21:03:50;;;;;;;8.67;3.03;;;5.10;99.90;;;;;;5052207;28;20903;-81
2022/02/10 21:06:32;;;;;;;6.93;3.30;;;5.10;99.90;;;;;;5047268;28;20484;-81
2022/02/10 21:09:07;;;;;;;6.67;2.57;;;5.10;99.90;;;;;;5036167;28;20989;-81
2022/02/10 21:11:34;;;;;;;2.97;2.07;;;5.00;99.90;;;;;;5036165;28;20575;-81
2022/02/10 21:14:07;;;;;;;3.00;1.90;;;5.00;99.90;;;;;;5039681;28;20487;-81
2022/02/10 21:16:35;;;;;;;6.57;3.17;;;5.10;99.90;;;;;;5048768;28;20453;-81
2022/02/10 21:19:03;;;;;;;8.53;2.50;;;5.10;99.90;;;;;;5035000;28;20458;-81
2022/02/10 21:21:30;;;;;;;6.20;2.40;;;5.10;99.90;;;;;;5035153;28;20459;-82
2022/02/10 21:24:01;;;;;;;5.73;1.97;;;5.00;99.90;;;;;;5034568;28;20976;-82
2022/02/10 21:26:32;;;;;;;8.63;2.60;;;5.00;99.90;;;;;;5039390;28;20964;-81
2022/02/10 21:29:02;;;;;;;7.70;2.70;;;5.00;99.90;;;;;;5048341;28;20463;-81
2022/02/10 21:31:31;;;;;;;5.20;2.60;;;5.00;99.90;;;;;;5027351;28;20463;-81
2022/02/10 21:34:08;;;;;;;8.70;3.50;;;5.00;99.90;;;;;;5019156;28;20528;-82
2022/02/10 21:36:49;;;;;;;12.83;4.07;;;5.00;99.90;;;;;;5031729;28;20463;-81
2022/02/10 21:39:31;;;;;;;6.80;3.03;;;5.00;99.90;;;;;;5017049;28;20968;-82
2022/02/10 21:47:53;;;;;;;8.27;3.47;;;5.00;99.90;;;;;;5040646;28;20544;-81
2022/02/10 21:56:19;;;;;;;11.07;4.97;;;4.90;99.90;;;;;;5036872;28;20480;-81
2022/02/10 22:05:12;;;;;;;5.07;3.87;;;4.80;99.90;;;;;;5054324;28;20960;-82
2022/02/10 22:10:22;;;;;;;5.13;3.70;;;4.80;99.90;;;;;;5038822;28;20408;-80
2022/02/10 22:18:44;;;;;;;4.57;3.00;;;4.80;99.90;;;;;;5058369;28;20423;-81
2022/02/10 22:21:17;;;;;;;5.40;2.90;;;4.70;99.90;;;;;;5035998;28;20452;-80
2022/02/10 22:23:46;;;;;;;7.27;3.60;;;4.70;99.90;;;;;;5036539;28;20460;-79
2022/02/10 22:26:19;;;;;;;5.13;2.80;;;4.70;99.90;;;;;;5038079;28;20575;-79
2022/02/10 22:28:52;;;;;;;6.97;2.50;;;4.70;99.90;;;;;;5046224;28;20456;-81
2022/02/10 22:31:30;;;;;;;3.80;2.70;;;4.60;99.90;;;;;;5051329;28;20487;-80
2022/02/10 22:34:09;;;;;;;8.57;3.70;;;4.50;99.90;;;;;;5046579;28;20460;-79
2022/02/10 22:36:40;;;;;;;3.90;2.57;;;4.50;99.90;;;;;;5057816;28;20465;-80
2022/02/10 22:39:08;;;;;;;7.73;2.17;;;4.40;99.90;;;;;;5044689;28;20457;-79
2022/02/10 22:41:35;;;;;;;6.20;2.97;;;4.50;99.90;;;;;;5036467;28;20457;-81
2022/02/10 22:44:04;;;;;;;4.73;2.20;;;4.50;99.90;;;;;;5036353;28;20453;-80
2022/02/10 22:46:32;;;;;;;4.47;2.40;;;4.50;99.90;;;;;;5040867;28;20496;-79
2022/02/10 22:48:59;;;;;;;4.77;1.90;;;4.40;99.90;;;;;;5034386;28;20454;-79
2022/02/10 22:51:28;;;;;;;7.80;2.43;;;4.40;99.90;;;;;;5039290;28;20455;-80
2022/02/10 22:53:56;;;;;;;4.97;2.33;;;4.40;99.90;;;;;;5041123;28;20488;-81
2022/02/10 22:56:28;;;;;;;3.40;1.90;;;4.50;99.90;;;;;;5045181;28;20463;-79
2022/02/10 22:58:57;;;;;;;3.97;2.10;;;4.50;99.90;;;;;;5045910;28;20460;-81
2022/02/10 23:01:24;;;;;;;5.93;2.10;;;4.40;99.90;;;;;;5041144;28;20460;-80
2022/02/10 23:03:51;;;;;;;4.90;2.30;;;4.40;99.90;;;;;;5050985;28;20565;-80
2022/02/10 23:06:19;;;;;;;4.97;2.13;;;4.50;99.90;;;;;;5051798;28;20482;-81
2022/02/10 23:08:46;;;;;;;9.63;2.23;;;4.50;99.90;;;;;;5057309;28;20500;-80
2022/02/10 23:11:17;;;;;;;4.17;2.73;;;4.50;99.90;;;;;;5053404;28;20461;-81
2022/02/10 23:13:45;;;;;;;10.30;2.63;;;4.60;99.90;;;;;;5047456;28;20570;-80
2022/02/10 23:16:14;;;;;;;8.57;4.77;;;4.60;99.90;;;;;;5044227;28;20521;-80
2022/02/10 23:18:45;;;;;;;8.10;4.20;;;4.50;99.90;;;;;;5055022;28;20498;-80
2022/02/10 23:21:14;;;;;;;11.57;5.77;;;4.50;99.90;;;;;;5051040;28;20462;-81
2022/02/10 23:23:44;;;;;;;8.30;4.13;;;4.50;99.90;;;;;;5036818;28;20468;-81
2022/02/10 23:26:13;;;;;;;5.80;3.83;;;4.50;99.90;;;;;;5041832;28;20469;-80
2022/02/10 23:28:43;;;;;;;9.43;4.30;;;4.50;99.90;;;;;;5057557;28;20456;-82
2022/02/10 23:31:12;;;;;;;10.03;4.97;;;4.60;99.90;;;;;;5036611;28;20461;-79
2022/02/10 23:33:42;;;;;;;9.03;5.40;;;4.50;99.90;;;;;;5029418;28;20530;-80
2022/02/10 23:39:03;;;;;;;10.27;8.17;;;4.60;99.90;;;;;;5038068;28;20434;-81
2022/02/10 23:41:55;;;;;;;15.20;7.00;;;4.50;99.90;;;;;;5041373;28;20455;-80
2022/02/10 23:44:27;;;;;;;12.53;6.50;;;4.40;99.90;;;;;;5065541;28;20457;-81
2022/02/10 23:46:56;;;;;;;14.77;6.50;;;4.40;99.90;;;;;;5097794;28;20480;-81
2022/02/10 23:49:24;;;;;;;13.20;7.27;;;4.40;99.90;;;;;;5061074;28;20798;-81
2022/02/10 23:51:56;;;;;;;14.40;6.23;;;4.40;99.90;;;;;;5058188;28;20961;-81
2022/02/10 23:54:24;;;;;;;8.30;4.67;;;4.40;99.90;;;;;;5059789;28;21007;-81
2022/02/10 23:56:57;;;;;;;8.10;4.37;;;4.40;99.90;;;;;;5053795;28;20560;-81
